createdAt,value
2022-08-03T00:01:27.086Z,46.16
2022-08-03T00:03:53.778Z,46.20
2022-08-03T00:06:20.418Z,45.89
2022-08-03T00:08:47.075Z,45.74
2022-08-03T00:11:13.731Z,45.20
2022-08-03T00:13:40.368Z,45.61
2022-08-03T00:16:07.110Z,45.69
2022-08-03T00:18:33.782Z,45.86
2022-08-03T00:21:00.443Z,46.24
2022-08-03T00:23:30.517Z,46.33
2022-08-03T00:26:14.788Z,46.54
2022-08-03T00:28:41.925Z,46.74
2022-08-03T00:31:08.569Z,47.04
2022-08-03T00:33:59.239Z,46.78
2022-08-03T00:36:26.918Z,46.83
2022-08-03T00:38:53.557Z,46.82
2022-08-03T00:41:20.206Z,46.86
2022-08-03T00:44:15.015Z,47.35
2022-08-03T00:46:41.686Z,46.82
2022-08-03T00:49:08.389Z,47.21
2022-08-03T00:51:35.176Z,46.90
2022-08-03T00:54:01.806Z,47.21
2022-08-03T00:56:28.506Z,46.92
2022-08-03T00:58:57.651Z,47.58
2022-08-03T01:01:26.644Z,47.29
2022-08-03T01:03:59.127Z,47.54
2022-08-03T01:06:32.425Z,47.62
2022-08-03T01:09:09.903Z,48.13
2022-08-03T01:12:00.232Z,48.32
2022-08-03T01:14:33.148Z,47.97
2022-08-03T01:17:06.860Z,48.24
2022-08-03T01:19:39.875Z,48.04
2022-08-03T01:22:52.835Z,48.70
2022-08-03T01:25:31.265Z,47.92
2022-08-03T01:28:08.104Z,48.42
2022-08-03T01:30:36.742Z,48.21
2022-08-03T01:33:15.079Z,48.23
2022-08-03T01:35:44.983Z,47.84
2022-08-03T01:38:15.552Z,48.33
2022-08-03T01:40:44.803Z,47.91
2022-08-03T01:43:15.296Z,48.39
2022-08-03T01:46:02.842Z,48.22
2022-08-03T01:49:22.944Z,48.90
2022-08-03T01:51:57.924Z,48.42
2022-08-03T01:54:36.743Z,48.44
2022-08-03T01:57:04.144Z,48.53
2022-08-03T01:59:33.794Z,48.10
2022-08-03T02:02:15.325Z,47.94
2022-08-03T02:04:48.157Z,48.19
2022-08-03T02:07:15.617Z,48.39
2022-08-03T02:09:44.506Z,48.82
2022-08-03T02:12:12.300Z,48.73
2022-08-03T02:14:41.038Z,48.71
2022-08-03T02:17:08.131Z,48.86
2022-08-03T02:19:36.971Z,49.10
2022-08-03T02:22:05.434Z,48.85
2022-08-03T02:24:32.252Z,48.78
2022-08-03T02:27:00.033Z,48.85
2022-08-03T02:29:40.050Z,49.13
2022-08-03T02:32:11.794Z,49.10
2022-08-03T02:34:42.344Z,48.88
2022-08-03T02:37:10.636Z,48.93
2022-08-03T02:39:37.813Z,48.80
2022-08-03T02:42:06.419Z,49.04
2022-08-03T02:44:33.595Z,48.50
2022-08-03T02:47:03.820Z,48.96
2022-08-03T02:49:40.995Z,49.15
2022-08-03T02:52:18.033Z,48.74
2022-08-03T02:54:46.338Z,49.06
2022-08-03T02:57:14.017Z,49.07
2022-08-03T02:59:42.730Z,49.46
2022-08-03T03:02:10.184Z,49.37
2022-08-03T03:04:36.974Z,49.38
2022-08-03T03:07:04.368Z,49.41
2022-08-03T03:09:40.269Z,49.45
2022-08-03T03:12:10.138Z,49.68
2022-08-03T03:14:37.385Z,49.64
2022-08-03T03:17:09.818Z,49.73
2022-08-03T03:19:39.672Z,50.15
2022-08-03T03:22:07.766Z,50.00
2022-08-03T03:24:36.044Z,50.11
2022-08-03T03:27:05.694Z,50.43
2022-08-03T03:29:39.462Z,50.12
2022-08-03T03:32:08.441Z,50.36
2022-08-03T03:34:39.340Z,50.04
2022-08-03T03:37:08.570Z,49.97
2022-08-03T03:39:36.424Z,50.52
2022-08-03T03:42:06.226Z,50.51
2022-08-03T03:44:38.100Z,50.54
2022-08-03T03:47:05.094Z,50.47
2022-08-03T03:49:32.459Z,50.36
2022-08-03T03:51:59.171Z,50.39
2022-08-03T03:54:29.255Z,50.57
2022-08-03T03:56:56.286Z,50.35
2022-08-03T03:59:22.955Z,50.49
2022-08-03T04:01:58.964Z,50.61
2022-08-03T04:04:44.643Z,50.89
2022-08-03T04:07:30.091Z,50.03
2022-08-03T04:10:15.736Z,50.26
2022-08-03T04:12:49.876Z,50.39
2022-08-03T04:15:19.979Z,50.32
2022-08-03T04:17:49.398Z,49.94
2022-08-03T04:20:18.389Z,49.70
2022-08-03T04:22:46.391Z,49.94
2022-08-03T04:25:18.014Z,49.67
2022-08-03T04:27:46.711Z,49.60
2022-08-03T04:30:33.766Z,49.68
2022-08-03T04:33:01.325Z,49.05
2022-08-03T04:36:01.292Z,45.12
2022-08-03T04:38:29.184Z,42.97
2022-08-03T04:40:56.586Z,42.93
2022-08-03T04:48:15.311Z,46.01
2022-08-03T04:50:42.906Z,47.10
2022-08-03T04:53:09.586Z,47.02
2022-08-03T04:55:36.584Z,47.17
2022-08-03T04:58:03.796Z,47.53
2022-08-03T05:05:01.880Z,48.08
2022-08-03T05:07:34.162Z,48.15
2022-08-03T05:10:16.139Z,48.10
2022-08-03T05:13:12.908Z,49.19
2022-08-03T05:15:43.050Z,48.43
2022-08-03T05:18:13.890Z,48.54
2022-08-03T05:20:41.287Z,48.37
2022-08-03T05:23:07.987Z,48.26
2022-08-03T05:25:34.660Z,48.57
2022-08-03T05:28:03.675Z,48.26
2022-08-03T05:30:33.807Z,48.41
2022-08-03T05:33:03.002Z,48.32
2022-08-03T05:36:00.631Z,48.72
2022-08-03T05:42:46.654Z,48.53
2022-08-03T05:45:17.856Z,48.27
2022-08-03T05:47:45.394Z,48.34
2022-08-03T05:50:13.014Z,48.03
2022-08-03T05:52:40.573Z,48.23
2022-08-03T05:55:08.094Z,48.15
2022-08-03T05:57:35.339Z,48.04
2022-08-03T06:00:07.021Z,48.56
2022-08-03T06:02:38.987Z,48.13
2022-08-03T06:05:06.270Z,48.30
2022-08-03T06:07:33.134Z,48.48
2022-08-03T06:10:36.784Z,48.31
2022-08-03T06:12:51.231Z,48.25
2022-08-03T06:15:20.627Z,48.61
2022-08-03T06:17:51.418Z,48.54
2022-08-03T06:20:19.718Z,48.08
2022-08-03T06:22:51.362Z,47.93
2022-08-03T06:25:27.261Z,47.92
2022-08-03T06:27:53.955Z,47.27
2022-08-03T06:30:21.463Z,47.56
2022-08-03T06:32:52.086Z,47.72
2022-08-03T06:35:19.538Z,47.50
2022-08-03T06:37:49.699Z,47.29
2022-08-03T06:40:28.963Z,47.22
2022-08-03T06:42:56.528Z,47.18
2022-08-03T06:45:23.242Z,46.98
2022-08-03T06:48:05.121Z,46.76
2022-08-03T06:50:34.216Z,46.46
2022-08-03T06:53:01.729Z,46.39
2022-08-03T06:55:28.735Z,46.53
2022-08-03T06:57:55.772Z,46.37
2022-08-03T07:00:27.936Z,46.37
2022-08-03T07:02:58.051Z,46.34
2022-08-03T07:05:25.077Z,46.14
2022-08-03T07:07:55.597Z,46.38
2022-08-03T07:10:22.226Z,46.16
2022-08-03T07:12:55.883Z,46.39
2022-08-03T07:15:53.864Z,46.32
2022-08-03T07:18:10.139Z,45.99
2022-08-03T07:20:36.917Z,46.18
2022-08-03T07:23:03.625Z,46.06
2022-08-03T07:25:30.346Z,46.54
2022-08-03T07:27:56.994Z,46.62
2022-08-03T07:30:24.997Z,46.78
2022-08-03T07:32:51.662Z,46.41
2022-08-03T07:35:24.278Z,46.54
2022-08-03T07:37:54.634Z,46.76
2022-08-03T07:40:22.417Z,46.49
2022-08-03T07:42:52.037Z,46.63
2022-08-03T07:45:21.314Z,46.43
2022-08-03T07:47:53.555Z,46.10
2022-08-03T07:50:20.805Z,46.02
2022-08-03T07:52:49.415Z,45.76
2022-08-03T07:55:17.118Z,45.62
2022-08-03T07:57:43.907Z,45.78
2022-08-03T08:00:19.023Z,45.83
2022-08-03T08:02:46.254Z,45.56
2022-08-03T08:05:14.986Z,45.49
2022-08-03T08:07:42.089Z,45.41
2022-08-03T08:10:10.053Z,45.41
2022-08-03T08:12:38.702Z,45.39
2022-08-03T08:15:06.079Z,45.47
2022-08-03T08:17:43.402Z,45.50
2022-08-03T08:20:12.568Z,45.04
2022-08-03T08:22:39.365Z,44.69
2022-08-03T08:25:07.457Z,44.66
2022-08-03T08:28:31.452Z,44.76
2022-08-03T08:30:22.423Z,44.53
2022-08-03T08:32:49.875Z,44.02
2022-08-03T08:35:17.877Z,43.98
2022-08-03T08:37:51.229Z,43.77
2022-08-03T08:40:20.862Z,44.15
2022-08-03T08:42:58.094Z,44.00
2022-08-03T08:45:25.518Z,44.11
2022-08-03T08:47:59.896Z,44.12
2022-08-03T08:50:28.621Z,44.03
2022-08-03T08:53:00.466Z,44.44
2022-08-03T08:55:29.869Z,44.35
2022-08-03T08:58:20.799Z,44.13
2022-08-03T09:00:48.475Z,44.12
2022-08-03T09:03:29.262Z,43.94
2022-08-03T09:05:56.615Z,43.96
2022-08-03T09:08:23.331Z,43.98
2022-08-03T09:10:50.023Z,43.64
2022-08-03T09:13:16.885Z,43.80
2022-08-03T09:16:01.105Z,43.71
2022-08-03T09:18:30.504Z,43.85
2022-08-03T09:21:30.247Z,43.64
2022-08-03T09:24:04.115Z,43.56
2022-08-03T09:26:33.424Z,43.79
2022-08-03T09:29:14.934Z,43.32
2022-08-03T09:31:45.039Z,42.97
2022-08-03T09:34:17.084Z,42.98
2022-08-03T09:36:50.622Z,42.94
2022-08-03T09:39:42.017Z,42.94
2022-08-03T09:42:17.518Z,42.70
2022-08-03T09:44:50.125Z,42.37
2022-08-03T09:47:36.589Z,42.65
2022-08-03T09:50:06.320Z,42.37
2022-08-03T09:52:48.307Z,42.42
2022-08-03T09:56:33.029Z,42.46
2022-08-03T09:58:09.106Z,41.93
2022-08-03T10:00:56.479Z,42.26
2022-08-03T10:03:24.264Z,41.98
2022-08-03T10:05:53.835Z,42.22
2022-08-03T10:08:23.279Z,42.79
2022-08-03T10:10:54.054Z,42.20
2022-08-03T10:13:22.507Z,42.14
2022-08-03T10:16:24.146Z,42.38
2022-08-03T10:18:36.524Z,42.30
2022-08-03T10:21:04.871Z,42.43
2022-08-03T10:23:35.386Z,42.22
2022-08-03T10:26:04.138Z,42.46
2022-08-03T10:28:57.071Z,42.50
2022-08-03T10:31:24.090Z,42.28
2022-08-03T10:33:53.084Z,42.60
2022-08-03T10:36:24.242Z,42.39
2022-08-03T10:38:56.569Z,42.56
2022-08-03T10:41:27.167Z,42.75
2022-08-03T10:43:59.410Z,42.58
2022-08-03T10:46:27.238Z,42.24
2022-08-03T10:48:54.440Z,42.30
2022-08-03T10:51:21.606Z,42.22
2022-08-03T10:53:55.416Z,42.30
2022-08-03T10:56:53.424Z,42.01
2022-08-03T10:59:46.702Z,42.19
2022-08-03T11:02:15.278Z,42.07
2022-08-03T11:04:42.760Z,41.96
2022-08-03T11:07:25.452Z,41.96
2022-08-03T11:09:56.205Z,41.92
2022-08-03T11:12:30.077Z,41.71
2022-08-03T11:15:05.013Z,41.60
2022-08-03T11:17:33.948Z,41.46
2022-08-03T11:20:13.658Z,40.16
2022-08-03T11:22:54.395Z,40.84
2022-08-03T11:25:53.345Z,41.03
2022-08-03T11:28:30.528Z,40.63
2022-08-03T11:30:57.602Z,40.85
2022-08-03T11:33:30.882Z,40.79
2022-08-03T11:36:03.490Z,40.74
2022-08-03T11:38:30.521Z,40.70
2022-08-03T11:40:57.279Z,40.46
2022-08-03T11:43:31.387Z,40.42
2022-08-03T11:46:28.476Z,39.99
2022-08-03T11:49:09.489Z,39.77
2022-08-03T11:51:38.662Z,39.82
2022-08-03T11:54:06.400Z,39.24
2022-08-03T11:56:47.075Z,38.95
2022-08-03T11:59:18.396Z,38.57
2022-08-03T12:01:47.648Z,38.61
2022-08-03T12:04:16.152Z,38.60
2022-08-03T12:06:58.247Z,38.62
2022-08-03T12:09:24.911Z,38.37
2022-08-03T12:11:59.911Z,38.13
2022-08-03T12:14:48.333Z,37.71
2022-08-03T12:17:15.215Z,37.54
2022-08-03T12:19:44.852Z,37.38
2022-08-03T12:22:11.502Z,37.69
2022-08-03T12:24:46.909Z,37.19
2022-08-03T12:27:24.302Z,37.20
2022-08-03T12:29:58.660Z,37.31
2022-08-03T12:32:26.861Z,37.18
2022-08-03T12:35:00.178Z,37.18
2022-08-03T12:37:27.474Z,37.53
2022-08-03T12:40:02.236Z,37.59
2022-08-03T12:42:32.114Z,37.70
2022-08-03T12:44:58.767Z,37.15
2022-08-03T12:47:25.442Z,36.09
2022-08-03T12:49:53.664Z,35.65
2022-08-03T12:52:22.413Z,35.98
2022-08-03T12:54:56.638Z,36.54
2022-08-03T12:57:23.844Z,35.95
2022-08-03T12:59:53.324Z,35.13
2022-08-03T13:02:25.901Z,35.44
2022-08-03T13:04:54.106Z,35.65
2022-08-03T13:07:22.045Z,35.38
2022-08-03T13:09:51.256Z,35.33
2022-08-03T13:13:11.733Z,35.73
2022-08-03T13:15:39.619Z,35.57
2022-08-03T13:18:16.753Z,35.32
2022-08-03T13:20:44.374Z,34.84
2022-08-03T13:23:15.544Z,35.06
2022-08-03T13:25:55.862Z,34.85
2022-08-03T13:28:23.191Z,34.75
2022-08-03T13:30:49.899Z,34.59
2022-08-03T13:33:16.716Z,34.42
2022-08-03T13:35:43.354Z,34.47
2022-08-03T13:38:10.074Z,34.56
2022-08-03T13:40:41.289Z,33.94
2022-08-03T13:43:08.505Z,34.16
2022-08-03T13:45:35.219Z,33.82
2022-08-03T13:48:01.943Z,33.80
2022-08-03T13:50:29.899Z,34.01
2022-08-03T13:52:58.050Z,34.34
2022-08-03T13:55:25.530Z,34.57
2022-08-03T13:58:02.296Z,34.45
2022-08-03T14:00:33.583Z,34.36
2022-08-03T14:03:12.787Z,34.06
2022-08-03T14:05:41.389Z,33.57
2022-08-03T14:08:08.192Z,33.84
2022-08-03T14:10:36.664Z,33.87
2022-08-03T14:13:04.247Z,33.44
2022-08-03T14:15:31.386Z,32.88
2022-08-03T14:17:58.493Z,32.82
2022-08-03T14:20:38.084Z,33.54
2022-08-03T14:23:07.174Z,33.25
2022-08-03T14:25:44.463Z,33.29
2022-08-03T14:28:19.226Z,33.15
2022-08-03T14:30:46.099Z,33.10
2022-08-03T14:33:12.748Z,33.40
2022-08-03T14:35:39.639Z,33.39
2022-08-03T14:38:06.459Z,33.25
2022-08-03T14:40:33.193Z,33.08
2022-08-03T14:42:59.871Z,33.31
2022-08-03T14:45:26.511Z,33.32
2022-08-03T14:50:28.786Z,32.81
2022-08-03T14:51:30.694Z,33.40
2022-08-03T14:53:58.559Z,33.37
2022-08-03T14:56:25.199Z,33.08
2022-08-03T14:58:51.918Z,32.65
2022-08-03T15:02:02.239Z,32.81
2022-08-03T15:04:06.297Z,32.78
2022-08-03T15:06:32.963Z,32.56
2022-08-03T15:09:21.543Z,32.38
2022-08-03T15:11:46.301Z,33.03
2022-08-03T15:14:13.507Z,32.93
2022-08-03T15:16:41.468Z,32.71
2022-08-03T15:20:03.743Z,31.92
2022-08-03T15:21:56.847Z,31.71
2022-08-03T15:24:27.604Z,32.02
2022-08-03T15:26:54.244Z,32.20
2022-08-03T15:30:07.153Z,32.20
2022-08-03T15:32:09.599Z,32.57
2022-08-03T15:34:37.571Z,32.31
2022-08-03T15:37:15.154Z,32.34
2022-08-03T15:39:59.158Z,32.22
2022-08-03T15:42:30.807Z,32.41
2022-08-03T15:44:57.539Z,32.28
2022-08-03T15:47:24.439Z,32.31
2022-08-03T15:49:51.121Z,32.62
2022-08-03T15:52:17.750Z,32.49
2022-08-03T15:54:44.414Z,32.26
2022-08-03T15:57:12.130Z,32.92
2022-08-03T15:59:38.912Z,33.52
2022-08-03T16:02:05.647Z,32.48
2022-08-03T16:04:32.302Z,32.21
2022-08-03T16:06:58.978Z,32.51
2022-08-03T16:09:42.839Z,32.95
2022-08-03T16:12:16.078Z,33.18
2022-08-03T16:14:52.478Z,33.97
2022-08-03T16:17:20.565Z,34.32
2022-08-03T16:19:47.467Z,34.34
2022-08-03T16:22:14.487Z,34.68
2022-08-03T16:24:42.327Z,34.81
2022-08-03T16:27:36.744Z,34.78
2022-08-03T16:29:55.733Z,35.09
2022-08-03T16:32:22.414Z,34.91
2022-08-03T16:34:49.150Z,34.95
2022-08-03T16:37:37.691Z,35.16
2022-08-03T16:40:03.757Z,35.00
2022-08-03T16:42:30.437Z,35.05
2022-08-03T16:44:57.078Z,35.07
2022-08-03T16:47:25.737Z,35.07
2022-08-03T16:49:55.126Z,35.10
2022-08-03T16:52:23.694Z,34.94
2022-08-03T16:54:53.630Z,34.99
2022-08-03T16:57:55.936Z,35.14
2022-08-03T17:00:11.806Z,35.24
2022-08-03T17:02:43.077Z,35.00
2022-08-03T17:05:15.287Z,35.08
2022-08-03T17:07:46.965Z,35.01
2022-08-03T17:10:21.988Z,34.80
2022-08-03T17:12:53.962Z,34.64
2022-08-03T17:15:58.145Z,34.86
2022-08-03T17:18:15.122Z,34.84
2022-08-03T17:20:42.614Z,34.95
2022-08-03T17:23:34.029Z,35.18
2022-08-03T17:26:04.105Z,35.10
2022-08-03T17:28:48.843Z,35.12
2022-08-03T17:31:22.920Z,34.97
2022-08-03T17:33:57.636Z,35.10
2022-08-03T17:36:41.831Z,35.17
2022-08-03T17:39:17.185Z,35.04
2022-08-03T17:41:50.228Z,35.17
2022-08-03T17:44:35.052Z,35.14
2022-08-03T17:47:04.997Z,35.28
2022-08-03T17:49:33.457Z,35.13
2022-08-03T17:52:17.812Z,35.33
2022-08-03T17:55:56.629Z,35.63
2022-08-03T17:58:03.283Z,35.54
2022-08-03T18:00:51.779Z,35.51
2022-08-03T18:03:28.435Z,35.52
2022-08-03T18:07:15.641Z,35.81
2022-08-03T18:10:03.770Z,35.84
2022-08-03T18:12:40.219Z,36.12
2022-08-03T18:15:13.298Z,36.09
2022-08-03T18:17:55.787Z,36.33
2022-08-03T18:20:32.360Z,36.00
2022-08-03T18:23:04.638Z,36.31
2022-08-03T18:25:45.162Z,36.63
2022-08-03T18:28:14.501Z,36.53
2022-08-03T18:30:54.600Z,36.62
2022-08-03T18:34:18.615Z,36.76
2022-08-03T18:36:21.677Z,36.54
2022-08-03T18:38:51.708Z,36.68
2022-08-03T18:41:32.231Z,36.62
2022-08-03T18:44:46.496Z,36.79
2022-08-03T18:47:51.821Z,37.23
2022-08-03T18:50:19.170Z,36.29
2022-08-03T18:52:53.266Z,36.80
2022-08-03T18:55:35.295Z,36.97
2022-08-03T18:58:17.814Z,36.58
2022-08-03T19:00:54.658Z,36.78
2022-08-03T19:03:43.047Z,37.02
2022-08-03T19:06:23.556Z,37.25
2022-08-03T19:09:04.460Z,36.95
2022-08-03T19:12:11.255Z,37.24
2022-08-03T19:14:28.424Z,36.97
2022-08-03T19:17:09.801Z,36.89
2022-08-03T19:19:43.984Z,37.13
2022-08-03T19:22:16.374Z,37.51
2022-08-03T19:24:45.674Z,37.77
2022-08-03T19:27:13.192Z,37.78
2022-08-03T19:29:58.906Z,37.99
2022-08-03T19:32:30.201Z,37.61
2022-08-03T19:34:59.434Z,37.91
2022-08-03T19:37:33.295Z,38.03
2022-08-03T19:40:12.533Z,38.25
2022-08-03T19:42:42.688Z,38.08
2022-08-03T19:49:57.666Z,38.55
2022-08-03T19:57:00.278Z,38.97
2022-08-03T19:59:29.574Z,38.78
2022-08-03T20:06:40.110Z,39.76
2022-08-03T20:09:09.213Z,39.56
2022-08-03T20:11:44.927Z,39.63
2022-08-03T20:14:20.555Z,40.05
2022-08-03T20:16:52.857Z,39.95
2022-08-03T20:19:19.998Z,40.19
2022-08-03T20:21:48.198Z,40.26
2022-08-03T20:24:24.230Z,40.25
2022-08-03T20:26:57.789Z,40.69
2022-08-03T20:30:06.526Z,41.40
2022-08-03T20:32:34.935Z,40.93
2022-08-03T20:35:01.630Z,40.92
2022-08-03T20:37:30.492Z,40.90
2022-08-03T20:39:57.881Z,40.75
2022-08-03T20:42:24.704Z,40.84
2022-08-03T20:45:05.290Z,40.60
2022-08-03T20:47:50.291Z,40.81
2022-08-03T20:50:17.731Z,40.76
2022-08-03T20:52:49.773Z,41.13
2022-08-03T20:59:51.449Z,41.25
2022-08-03T21:02:28.917Z,41.33
2022-08-03T21:05:03.342Z,41.13
2022-08-03T21:08:05.464Z,41.29
2022-08-03T21:10:29.587Z,41.22
2022-08-03T21:13:17.754Z,42.06
2022-08-03T21:16:06.860Z,41.54
2022-08-03T21:18:54.398Z,41.85
2022-08-03T21:21:50.915Z,40.95
2022-08-03T21:24:19.169Z,40.62
2022-08-03T21:26:47.425Z,40.76
2022-08-03T21:29:16.899Z,40.36
2022-08-03T21:31:43.593Z,40.37
2022-08-03T21:34:10.283Z,40.21
2022-08-03T21:36:37.641Z,40.60
2022-08-03T21:39:08.315Z,40.94
2022-08-03T21:41:36.798Z,41.24
2022-08-03T21:44:04.313Z,41.78
2022-08-03T21:46:35.898Z,42.00
2022-08-03T21:50:02.630Z,42.02
2022-08-03T21:51:52.309Z,41.78
2022-08-03T21:54:21.518Z,42.34
2022-08-03T21:56:50.979Z,41.73
2022-08-03T21:59:19.755Z,42.34
2022-08-03T22:06:19.877Z,43.07
2022-08-03T22:08:47.526Z,43.02
2022-08-03T22:11:14.233Z,42.86
2022-08-03T22:13:43.603Z,42.98
2022-08-03T22:16:12.102Z,43.14
2022-08-03T22:18:41.867Z,43.41
2022-08-03T22:21:10.335Z,43.23
2022-08-03T22:23:45.816Z,43.85
2022-08-03T22:26:34.880Z,44.10
2022-08-03T22:29:06.816Z,43.35
2022-08-03T22:31:58.513Z,43.65
2022-08-03T22:34:26.267Z,44.64
2022-08-03T22:36:57.132Z,43.94
2022-08-03T22:39:27.844Z,43.87
2022-08-03T22:41:56.627Z,43.76
2022-08-03T22:44:23.409Z,43.22
2022-08-03T22:46:50.320Z,43.33
2022-08-03T22:49:18.355Z,43.54
2022-08-03T22:51:45.047Z,43.17
2022-08-03T22:54:12.902Z,43.68
2022-08-03T22:56:39.762Z,43.79
2022-08-03T22:59:39.153Z,45.43
2022-08-03T23:01:56.671Z,46.59
2022-08-03T23:04:24.572Z,46.61
2022-08-03T23:06:51.726Z,46.10
2022-08-03T23:09:21.191Z,46.55
2022-08-03T23:11:48.373Z,46.42
2022-08-03T23:14:17.099Z,45.79
2022-08-03T23:16:45.614Z,45.39
2022-08-03T23:19:17.448Z,45.30
2022-08-03T23:22:02.976Z,45.83
2022-08-03T23:24:33.803Z,45.33
2022-08-03T23:27:03.689Z,45.10
2022-08-03T23:29:31.103Z,45.30
2022-08-03T23:31:58.451Z,45.02
2022-08-03T23:34:44.851Z,45.00
2022-08-03T23:37:13.553Z,44.96
2022-08-03T23:39:40.461Z,44.47
2022-08-03T23:42:07.348Z,44.80
2022-08-03T23:44:34.606Z,44.49
2022-08-03T23:47:01.318Z,44.65
2022-08-03T23:49:27.971Z,45.22
2022-08-03T23:52:03.479Z,44.61
2022-08-03T23:54:47.422Z,44.46
2022-08-03T23:57:38.643Z,44.44
